Flight Track Log - Related Links

Times and Time Zones

All times are in EDT time to prevent confusion due to time zone crossing. See the VET380 flight status page for this flight to view local times or setup timezone preferences in your user account.

Time Position Orientation Groundspeed Altitude Reporting Facility
EDT Latitude Longitude Course Direction KTS MPH feet Rate Location/Type
Sun 03:02:44 PM 35.9869 -83.2636 168° South 150 173 9,700  Level Atlanta Center
Sun 03:03:44 PM 35.9389 -83.2489 166° South 157 181 11,100 700 Climbing Atlanta Center
Sun 03:04:44 PM 35.8783 -83.2239 162° South 182 209 11,100 50 Level Atlanta Center
Sun 03:05:00 PM 35.9216 -83.1737 149° Southeast  Level Estimated
Sun 03:05:44 PM 35.8092 -83.1989 164° South 248 285 11,200  Level Atlanta Center
Sun 03:06:00 PM 35.8785 -83.1406 148° Southeast  Level FlightAware Approximate
Sun 03:06:44 PM 35.7444 -83.1636 156° South 266 306 11,300  Level Atlanta Center
Sun 03:07:44 PM 35.6939 -83.1208 145° Southeast 233 268 11,100 -100 Descending Atlanta Center
Sun 03:08:44 PM 35.6436 -83.0678 139° Southeast 239 275 11,100  Level Atlanta Center
Sun 03:09:44 PM 35.5867 -83.0097 140° Southeast 253 291 11,100  Level Atlanta Center
Sun 03:10:44 PM 35.5278 -82.9594 145° Southeast 259 298 11,100  Level Atlanta Center
Sun 03:11:44 PM 35.4650 -82.9167 151° Southeast 259 298 11,100  Level Atlanta Center
Sun 03:12:44 PM 35.4039 -82.8642 145° Southeast 259 298 11,100  Level Atlanta Center
Sun 03:13:44 PM 35.3469 -82.8114 143° Southeast 259 298 11,100  Level Atlanta Center
Sun 03:14:44 PM 35.2881 -82.7564 143° Southeast 264 304 11,100 -450 Level Atlanta Center
Sun 03:15:44 PM 35.2289 -82.6989 142° Southeast 269 310 10,200 -1,100 Descending Atlanta Center
Sun 03:16:44 PM 35.1700 -82.6542 148° Southeast 269 310 8,900 -1,200 Descending Atlanta Center
Sun 03:17:44 PM 35.1131 -82.5967 140° Southeast 264 304 7,800 -1,100 Descending Atlanta Center
Sun 03:18:44 PM 35.0561 -82.5442 143° Southeast 264 304 6,700 -1,050 Descending Atlanta Center
Sun 03:19:44 PM 35.0178 -82.4714 123° Southeast 257 296 5,700 -950 Descending Atlanta Center
Sun 03:20:44 PM 35.0125 -82.3878 94° East 244 281 4,800 -1,150 Descending Atlanta Center
Sun 03:21:44 PM 34.9639 -82.3456 145° Southeast 205 236 3,400 -850 Descending Atlanta Center
Sun 03:22:44 PM 34.9217 -82.3239 157° South 189 217 3,100 3,800 Descending Atlanta Center
Sun 03:23:44 PM 34.8794 -82.2867 144° Southeast 189 217 11,000 7,900 Climbing Atlanta Center

Login

Don't have an account? Register now (free) for customized features, flight alerts, and more!